sensor_id;sensor_type;location;lat;lon;timestamp;temperature;humidity
41924;DHT22;27613;48.116;11.656;2022-07-09T00:00:11;13.10;93.90
41924;DHT22;27613;48.116;11.656;2022-07-09T00:02:37;13.00;93.90
41924;DHT22;27613;48.116;11.656;2022-07-09T00:05:03;13.10;94.30
41924;DHT22;27613;48.116;11.656;2022-07-09T00:07:29;13.00;94.30
41924;DHT22;27613;48.116;11.656;2022-07-09T00:09:54;13.10;94.20
41924;DHT22;27613;48.116;11.656;2022-07-09T00:12:20;13.00;94.40
41924;DHT22;27613;48.116;11.656;2022-07-09T00:14:46;12.90;94.80
41924;DHT22;27613;48.116;11.656;2022-07-09T00:17:12;12.90;94.90
41924;DHT22;27613;48.116;11.656;2022-07-09T00:19:38;12.80;95.20
41924;DHT22;27613;48.116;11.656;2022-07-09T00:22:03;12.70;95.70
41924;DHT22;27613;48.116;11.656;2022-07-09T00:24:31;12.60;96.10
41924;DHT22;27613;48.116;11.656;2022-07-09T00:26:56;12.60;96.40
41924;DHT22;27613;48.116;11.656;2022-07-09T00:29:22;12.60;97.00
41924;DHT22;27613;48.116;11.656;2022-07-09T00:31:48;12.60;97.10
41924;DHT22;27613;48.116;11.656;2022-07-09T00:34:13;12.60;97.20
41924;DHT22;27613;48.116;11.656;2022-07-09T00:36:39;12.60;97.50
41924;DHT22;27613;48.116;11.656;2022-07-09T00:39:04;12.50;97.80
41924;DHT22;27613;48.116;11.656;2022-07-09T00:41:32;12.60;98.00
41924;DHT22;27613;48.116;11.656;2022-07-09T00:43:58;12.40;98.50
41924;DHT22;27613;48.116;11.656;2022-07-09T00:46:24;12.50;98.70
41924;DHT22;27613;48.116;11.656;2022-07-09T00:48:49;12.40;98.80
41924;DHT22;27613;48.116;11.656;2022-07-09T00:51:17;12.40;99.50
41924;DHT22;27613;48.116;11.656;2022-07-09T00:53:45;12.30;99.80
41924;DHT22;27613;48.116;11.656;2022-07-09T00:56:12;12.30;99.90
41924;DHT22;27613;48.116;11.656;2022-07-09T00:58:37;12.30;99.90
41924;DHT22;27613;48.116;11.656;2022-07-09T01:01:04;12.20;99.90
41924;DHT22;27613;48.116;11.656;2022-07-09T01:03:30;12.20;99.90
41924;DHT22;27613;48.116;11.656;2022-07-09T01:05:56;12.20;99.90
41924;DHT22;27613;48.116;11.656;2022-07-09T01:08:22;12.10;99.90
41924;DHT22;27613;48.116;11.656;2022-07-09T01:10:48;12.10;99.90
41924;DHT22;27613;48.116;11.656;2022-07-09T01:13:16;12.10;99.90
41924;DHT22;27613;48.116;11.656;2022-07-09T01:15:41;11.90;99.90
41924;DHT22;27613;48.116;11.656;2022-07-09T01:18:10;11.90;99.90
41924;DHT22;27613;48.116;11.656;2022-07-09T01:20:36;11.90;99.90
41924;DHT22;27613;48.116;11.656;2022-07-09T01:23:02;11.90;99.90
41924;DHT22;27613;48.116;11.656;2022-07-09T01:25:38;11.90;99.90
41924;DHT22;27613;48.116;11.656;2022-07-09T01:28:06;11.90;99.90
41924;DHT22;27613;48.116;11.656;2022-07-09T01:30:33;12.00;99.90
41924;DHT22;27613;48.116;11.656;2022-07-09T01:32:59;11.90;99.90
41924;DHT22;27613;48.116;11.656;2022-07-09T01:35:25;11.90;99.90
41924;DHT22;27613;48.116;11.656;2022-07-09T01:37:51;12.00;99.90
41924;DHT22;27613;48.116;11.656;2022-07-09T01:40:17;11.90;99.90
41924;DHT22;27613;48.116;11.656;2022-07-09T01:42:43;12.00;99.90
41924;DHT22;27613;48.116;11.656;2022-07-09T01:45:09;12.00;99.90
41924;DHT22;27613;48.116;11.656;2022-07-09T01:47:35;12.00;99.90
41924;DHT22;27613;48.116;11.656;2022-07-09T01:50:01;12.00;99.90
41924;DHT22;27613;48.116;11.656;2022-07-09T01:52:29;12.10;99.90
41924;DHT22;27613;48.116;11.656;2022-07-09T01:54:55;12.10;99.90
41924;DHT22;27613;48.116;11.656;2022-07-09T01:57:20;12.10;99.90
41924;DHT22;27613;48.116;11.656;2022-07-09T01:59:46;12.10;99.90
41924;DHT22;27613;48.116;11.656;2022-07-09T02:02:11;12.20;99.90
41924;DHT22;27613;48.116;11.656;2022-07-09T02:04:37;12.30;99.90
41924;DHT22;27613;48.116;11.656;2022-07-09T02:07:03;12.30;99.90
41924;DHT22;27613;48.116;11.656;2022-07-09T02:09:29;12.30;99.90
41924;DHT22;27613;48.116;11.656;2022-07-09T02:11:55;12.20;99.90
41924;DHT22;27613;48.116;11.656;2022-07-09T02:14:21;12.20;99.90
41924;DHT22;27613;48.116;11.656;2022-07-09T02:16:47;12.20;99.90
41924;DHT22;27613;48.116;11.656;2022-07-09T02:19:13;12.30;99.90
41924;DHT22;27613;48.116;11.656;2022-07-09T02:21:39;12.30;99.90
41924;DHT22;27613;48.116;11.656;2022-07-09T02:24:05;12.30;99.90
41924;DHT22;27613;48.116;11.656;2022-07-09T02:26:31;12.30;99.90
41924;DHT22;27613;48.116;11.656;2022-07-09T02:28:56;12.20;99.90
41924;DHT22;27613;48.116;11.656;2022-07-09T02:31:22;12.30;99.90
41924;DHT22;27613;48.116;11.656;2022-07-09T02:33:48;12.30;99.90
41924;DHT22;27613;48.116;11.656;2022-07-09T02:36:13;12.30;99.90
41924;DHT22;27613;48.116;11.656;2022-07-09T02:38:39;12.30;99.90
41924;DHT22;27613;48.116;11.656;2022-07-09T02:41:05;12.30;99.90
41924;DHT22;27613;48.116;11.656;2022-07-09T02:43:30;12.30;99.90
41924;DHT22;27613;48.116;11.656;2022-07-09T02:45:56;12.30;99.90
41924;DHT22;27613;48.116;11.656;2022-07-09T02:48:22;12.30;99.90
41924;DHT22;27613;48.116;11.656;2022-07-09T02:50:51;12.40;99.90
41924;DHT22;27613;48.116;11.656;2022-07-09T02:53:17;12.40;99.90
41924;DHT22;27613;48.116;11.656;2022-07-09T02:55:44;12.40;99.90
41924;DHT22;27613;48.116;11.656;2022-07-09T02:58:09;12.40;99.90
41924;DHT22;27613;48.116;11.656;2022-07-09T03:00:36;12.50;99.90
41924;DHT22;27613;48.116;11.656;2022-07-09T03:03:01;12.50;99.90
41924;DHT22;27613;48.116;11.656;2022-07-09T03:05:27;12.50;99.90
41924;DHT22;27613;48.116;11.656;2022-07-09T03:07:53;12.50;99.90
41924;DHT22;27613;48.116;11.656;2022-07-09T03:10:18;12.50;99.90
41924;DHT22;27613;48.116;11.656;2022-07-09T03:12:44;12.60;99.90
41924;DHT22;27613;48.116;11.656;2022-07-09T03:15:10;12.60;99.90
41924;DHT22;27613;48.116;11.656;2022-07-09T03:17:38;12.60;99.90
41924;DHT22;27613;48.116;11.656;2022-07-09T03:20:04;12.70;99.90
41924;DHT22;27613;48.116;11.656;2022-07-09T03:22:30;12.60;99.90
41924;DHT22;27613;48.116;11.656;2022-07-09T03:24:55;12.70;99.90
41924;DHT22;27613;48.116;11.656;2022-07-09T03:27:21;12.80;99.90
41924;DHT22;27613;48.116;11.656;2022-07-09T03:29:47;12.70;99.90
41924;DHT22;27613;48.116;11.656;2022-07-09T03:32:13;12.80;99.90
41924;DHT22;27613;48.116;11.656;2022-07-09T03:34:38;12.70;99.90
41924;DHT22;27613;48.116;11.656;2022-07-09T03:37:05;12.70;99.90
41924;DHT22;27613;48.116;11.656;2022-07-09T03:39:31;12.70;99.90
41924;DHT22;27613;48.116;11.656;2022-07-09T03:41:57;12.70;99.90
41924;DHT22;27613;48.116;11.656;2022-07-09T03:44:22;12.70;99.90
41924;DHT22;27613;48.116;11.656;2022-07-09T03:46:48;12.70;99.90
41924;DHT22;27613;48.116;11.656;2022-07-09T03:49:13;12.70;99.90
41924;DHT22;27613;48.116;11.656;2022-07-09T03:51:39;12.80;99.90
41924;DHT22;27613;48.116;11.656;2022-07-09T03:54:05;12.70;99.90
41924;DHT22;27613;48.116;11.656;2022-07-09T03:56:30;12.70;99.90
41924;DHT22;27613;48.116;11.656;2022-07-09T03:58:56;12.70;99.90
41924;DHT22;27613;48.116;11.656;2022-07-09T04:01:21;12.70;99.90
41924;DHT22;27613;48.116;11.656;2022-07-09T04:03:47;12.70;99.90
41924;DHT22;27613;48.116;11.656;2022-07-09T04:06:13;12.80;99.90
41924;DHT22;27613;48.116;11.656;2022-07-09T04:08:40;12.90;99.90
41924;DHT22;27613;48.116;11.656;2022-07-09T04:11:05;12.90;99.90
41924;DHT22;27613;48.116;11.656;2022-07-09T04:13:32;12.90;99.90
41924;DHT22;27613;48.116;11.656;2022-07-09T04:15:58;12.90;99.90
41924;DHT22;27613;48.116;11.656;2022-07-09T04:18:23;13.00;99.90
41924;DHT22;27613;48.116;11.656;2022-07-09T04:20:49;13.00;99.90
41924;DHT22;27613;48.116;11.656;2022-07-09T04:23:14;13.00;99.90
41924;DHT22;27613;48.116;11.656;2022-07-09T04:25:40;13.00;99.90
41924;DHT22;27613;48.116;11.656;2022-07-09T04:28:05;13.00;99.90
41924;DHT22;27613;48.116;11.656;2022-07-09T04:30:31;13.00;99.90
41924;DHT22;27613;48.116;11.656;2022-07-09T04:32:57;13.10;99.90
41924;DHT22;27613;48.116;11.656;2022-07-09T04:35:23;13.00;99.90
41924;DHT22;27613;48.116;11.656;2022-07-09T04:37:48;13.10;99.90
41924;DHT22;27613;48.116;11.656;2022-07-09T04:40:14;13.00;99.90
41924;DHT22;27613;48.116;11.656;2022-07-09T04:42:40;13.10;99.90
41924;DHT22;27613;48.116;11.656;2022-07-09T04:45:07;13.10;99.90
41924;DHT22;27613;48.116;11.656;2022-07-09T04:47:33;13.10;99.90
41924;DHT22;27613;48.116;11.656;2022-07-09T04:49:58;13.20;99.90
41924;DHT22;27613;48.116;11.656;2022-07-09T04:52:24;13.30;99.90
41924;DHT22;27613;48.116;11.656;2022-07-09T04:54:52;13.30;99.90
41924;DHT22;27613;48.116;11.656;2022-07-09T04:57:19;13.30;99.90
41924;DHT22;27613;48.116;11.656;2022-07-09T04:59:44;13.30;99.90
41924;DHT22;27613;48.116;11.656;2022-07-09T05:02:10;13.40;99.90
41924;DHT22;27613;48.116;11.656;2022-07-09T05:04:35;13.20;99.90
41924;DHT22;27613;48.116;11.656;2022-07-09T05:07:01;13.20;99.90
41924;DHT22;27613;48.116;11.656;2022-07-09T05:09:27;13.40;99.90
41924;DHT22;27613;48.116;11.656;2022-07-09T05:11:52;13.50;99.90
41924;DHT22;27613;48.116;11.656;2022-07-09T05:14:19;13.60;99.90
41924;DHT22;27613;48.116;11.656;2022-07-09T05:16:45;13.70;99.90
41924;DHT22;27613;48.116;11.656;2022-07-09T05:19:11;13.80;99.90
41924;DHT22;27613;48.116;11.656;2022-07-09T05:21:41;13.90;99.90
41924;DHT22;27613;48.116;11.656;2022-07-09T05:24:07;13.80;99.90
41924;DHT22;27613;48.116;11.656;2022-07-09T05:26:36;13.90;99.90
41924;DHT22;27613;48.116;11.656;2022-07-09T05:29:05;13.90;99.90
41924;DHT22;27613;48.116;11.656;2022-07-09T05:31:30;14.00;99.90
41924;DHT22;27613;48.116;11.656;2022-07-09T05:33:56;14.10;99.90
41924;DHT22;27613;48.116;11.656;2022-07-09T05:36:22;14.10;99.90
41924;DHT22;27613;48.116;11.656;2022-07-09T05:38:47;14.20;99.90
41924;DHT22;27613;48.116;11.656;2022-07-09T05:41:13;14.20;99.90
41924;DHT22;27613;48.116;11.656;2022-07-09T05:43:41;14.10;99.90
41924;DHT22;27613;48.116;11.656;2022-07-09T05:46:06;14.30;99.90
41924;DHT22;27613;48.116;11.656;2022-07-09T05:48:32;14.30;99.90
41924;DHT22;27613;48.116;11.656;2022-07-09T05:50:57;14.40;99.90
41924;DHT22;27613;48.116;11.656;2022-07-09T05:53:23;14.50;99.90
41924;DHT22;27613;48.116;11.656;2022-07-09T05:55:48;14.60;99.90
41924;DHT22;27613;48.116;11.656;2022-07-09T05:58:15;14.60;99.90
41924;DHT22;27613;48.116;11.656;2022-07-09T06:00:41;14.70;99.90
41924;DHT22;27613;48.116;11.656;2022-07-09T06:03:07;14.70;99.90
41924;DHT22;27613;48.116;11.656;2022-07-09T06:05:33;14.70;99.90
41924;DHT22;27613;48.116;11.656;2022-07-09T06:07:58;14.80;99.90
41924;DHT22;27613;48.116;11.656;2022-07-09T06:10:24;14.80;99.90
41924;DHT22;27613;48.116;11.656;2022-07-09T06:12:50;14.90;99.90
41924;DHT22;27613;48.116;11.656;2022-07-09T06:15:17;15.10;99.90
41924;DHT22;27613;48.116;11.656;2022-07-09T06:17:42;15.30;99.90
41924;DHT22;27613;48.116;11.656;2022-07-09T06:20:08;15.40;99.60
41924;DHT22;27613;48.116;11.656;2022-07-09T06:22:34;15.30;99.90
41924;DHT22;27613;48.116;11.656;2022-07-09T06:25:00;15.60;99.90
41924;DHT22;27613;48.116;11.656;2022-07-09T06:27:25;15.70;99.00
41924;DHT22;27613;48.116;11.656;2022-07-09T06:29:51;15.80;99.40
41924;DHT22;27613;48.116;11.656;2022-07-09T06:32:17;15.90;98.50
41924;DHT22;27613;48.116;11.656;2022-07-09T06:34:42;15.90;98.90
41924;DHT22;27613;48.116;11.656;2022-07-09T06:37:08;16.00;98.30
41924;DHT22;27613;48.116;11.656;2022-07-09T06:39:33;16.20;97.60
41924;DHT22;27613;48.116;11.656;2022-07-09T06:42:12;16.20;97.80
41924;DHT22;27613;48.116;11.656;2022-07-09T06:44:38;16.40;96.80
41924;DHT22;27613;48.116;11.656;2022-07-09T06:47:05;16.40;97.10
41924;DHT22;27613;48.116;11.656;2022-07-09T06:49:31;16.60;96.50
41924;DHT22;27613;48.116;11.656;2022-07-09T06:51:57;16.80;95.40
41924;DHT22;27613;48.116;11.656;2022-07-09T06:54:23;16.90;95.80
41924;DHT22;27613;48.116;11.656;2022-07-09T06:56:49;17.00;94.90
41924;DHT22;27613;48.116;11.656;2022-07-09T06:59:15;17.10;96.20
41924;DHT22;27613;48.116;11.656;2022-07-09T07:01:41;17.10;93.90
41924;DHT22;27613;48.116;11.656;2022-07-09T07:04:06;17.00;93.30
41924;DHT22;27613;48.116;11.656;2022-07-09T07:06:32;17.10;93.30
41924;DHT22;27613;48.116;11.656;2022-07-09T07:08:58;17.20;93.60
41924;DHT22;27613;48.116;11.656;2022-07-09T07:11:24;17.30;92.50
41924;DHT22;27613;48.116;11.656;2022-07-09T07:13:50;17.20;93.00
41924;DHT22;27613;48.116;11.656;2022-07-09T07:16:16;17.20;92.60
41924;DHT22;27613;48.116;11.656;2022-07-09T07:18:41;17.30;92.80
41924;DHT22;27613;48.116;11.656;2022-07-09T07:21:07;17.40;93.00
41924;DHT22;27613;48.116;11.656;2022-07-09T07:23:32;17.40;91.30
41924;DHT22;27613;48.116;11.656;2022-07-09T07:25:59;17.50;91.20
41924;DHT22;27613;48.116;11.656;2022-07-09T07:28:25;17.60;90.60
41924;DHT22;27613;48.116;11.656;2022-07-09T07:30:50;17.80;90.70
41924;DHT22;27613;48.116;11.656;2022-07-09T07:33:16;17.80;89.80
41924;DHT22;27613;48.116;11.656;2022-07-09T07:35:43;17.80;89.30
41924;DHT22;27613;48.116;11.656;2022-07-09T07:38:08;17.90;89.40
41924;DHT22;27613;48.116;11.656;2022-07-09T07:40:34;17.90;87.70
41924;DHT22;27613;48.116;11.656;2022-07-09T07:42:59;18.10;89.90
41924;DHT22;27613;48.116;11.656;2022-07-09T07:45:25;18.00;86.90
41924;DHT22;27613;48.116;11.656;2022-07-09T07:47:51;17.90;84.90
41924;DHT22;27613;48.116;11.656;2022-07-09T07:50:16;18.00;85.40
41924;DHT22;27613;48.116;11.656;2022-07-09T07:52:42;18.00;85.00
41924;DHT22;27613;48.116;11.656;2022-07-09T07:55:08;18.10;83.30
41924;DHT22;27613;48.116;11.656;2022-07-09T07:57:34;18.30;83.30
41924;DHT22;27613;48.116;11.656;2022-07-09T07:59:59;18.50;85.80
41924;DHT22;27613;48.116;11.656;2022-07-09T08:02:25;18.50;84.50
41924;DHT22;27613;48.116;11.656;2022-07-09T08:04:50;18.60;84.10
41924;DHT22;27613;48.116;11.656;2022-07-09T08:07:16;18.60;83.60
41924;DHT22;27613;48.116;11.656;2022-07-09T08:09:42;18.20;84.40
41924;DHT22;27613;48.116;11.656;2022-07-09T08:12:08;18.30;84.50
41924;DHT22;27613;48.116;11.656;2022-07-09T08:14:33;18.30;84.40
41924;DHT22;27613;48.116;11.656;2022-07-09T08:16:59;18.40;83.60
41924;DHT22;27613;48.116;11.656;2022-07-09T08:19:25;18.50;82.90
41924;DHT22;27613;48.116;11.656;2022-07-09T08:21:50;18.40;82.80
41924;DHT22;27613;48.116;11.656;2022-07-09T08:24:16;18.60;81.90
41924;DHT22;27613;48.116;11.656;2022-07-09T08:26:42;18.80;82.80
41924;DHT22;27613;48.116;11.656;2022-07-09T08:29:07;18.80;82.40
41924;DHT22;27613;48.116;11.656;2022-07-09T08:31:33;18.60;80.80
41924;DHT22;27613;48.116;11.656;2022-07-09T08:33:59;19.00;81.10
41924;DHT22;27613;48.116;11.656;2022-07-09T08:36:24;19.30;80.40
41924;DHT22;27613;48.116;11.656;2022-07-09T08:38:50;19.30;78.90
41924;DHT22;27613;48.116;11.656;2022-07-09T08:41:16;19.60;78.30
41924;DHT22;27613;48.116;11.656;2022-07-09T08:43:50;19.60;78.60
41924;DHT22;27613;48.116;11.656;2022-07-09T08:46:17;20.00;78.20
41924;DHT22;27613;48.116;11.656;2022-07-09T08:48:44;20.40;76.90
41924;DHT22;27613;48.116;11.656;2022-07-09T08:51:10;20.60;74.60
41924;DHT22;27613;48.116;11.656;2022-07-09T08:53:40;20.60;75.10
41924;DHT22;27613;48.116;11.656;2022-07-09T08:56:07;20.20;76.20
41924;DHT22;27613;48.116;11.656;2022-07-09T08:58:33;20.10;75.70
41924;DHT22;27613;48.116;11.656;2022-07-09T09:00:59;19.90;76.30
41924;DHT22;27613;48.116;11.656;2022-07-09T09:03:25;19.40;78.70
41924;DHT22;27613;48.116;11.656;2022-07-09T09:06:05;19.40;79.50
41924;DHT22;27613;48.116;11.656;2022-07-09T09:08:41;19.30;78.30
41924;DHT22;27613;48.116;11.656;2022-07-09T09:11:14;20.00;78.40
41924;DHT22;27613;48.116;11.656;2022-07-09T09:13:44;20.20;76.00
41924;DHT22;27613;48.116;11.656;2022-07-09T09:16:11;20.00;74.30
41924;DHT22;27613;48.116;11.656;2022-07-09T09:18:42;20.70;76.00
41924;DHT22;27613;48.116;11.656;2022-07-09T09:21:09;21.00;70.30
41924;DHT22;27613;48.116;11.656;2022-07-09T09:23:43;21.10;70.30
41924;DHT22;27613;48.116;11.656;2022-07-09T09:31:26;21.20;68.90
41924;DHT22;27613;48.116;11.656;2022-07-09T09:33:55;21.80;68.10
41924;DHT22;27613;48.116;11.656;2022-07-09T09:36:28;22.50;65.60
41924;DHT22;27613;48.116;11.656;2022-07-09T09:38:54;23.00;64.50
41924;DHT22;27613;48.116;11.656;2022-07-09T09:41:32;23.30;63.40
41924;DHT22;27613;48.116;11.656;2022-07-09T09:43:59;23.80;62.60
41924;DHT22;27613;48.116;11.656;2022-07-09T09:46:26;24.80;60.10
41924;DHT22;27613;48.116;11.656;2022-07-09T09:48:52;25.80;60.20
41924;DHT22;27613;48.116;11.656;2022-07-09T09:51:19;26.20;56.20
41924;DHT22;27613;48.116;11.656;2022-07-09T09:53:47;25.20;56.40
41924;DHT22;27613;48.116;11.656;2022-07-09T09:56:13;25.80;56.20
41924;DHT22;27613;48.116;11.656;2022-07-09T09:58:39;25.10;57.30
41924;DHT22;27613;48.116;11.656;2022-07-09T10:01:05;25.60;55.70
41924;DHT22;27613;48.116;11.656;2022-07-09T10:03:31;26.50;55.90
41924;DHT22;27613;48.116;11.656;2022-07-09T10:05:57;26.40;55.00
41924;DHT22;27613;48.116;11.656;2022-07-09T10:08:22;26.30;54.80
41924;DHT22;27613;48.116;11.656;2022-07-09T10:10:51;25.50;55.10
41924;DHT22;27613;48.116;11.656;2022-07-09T10:13:21;26.80;54.40
41924;DHT22;27613;48.116;11.656;2022-07-09T10:15:50;27.50;51.40
41924;DHT22;27613;48.116;11.656;2022-07-09T10:18:20;28.60;51.10
41924;DHT22;27613;48.116;11.656;2022-07-09T10:20:45;27.70;50.30
41924;DHT22;27613;48.116;11.656;2022-07-09T10:23:24;27.60;49.50
41924;DHT22;27613;48.116;11.656;2022-07-09T10:25:51;27.10;52.60
41924;DHT22;27613;48.116;11.656;2022-07-09T10:28:23;27.00;51.80
41924;DHT22;27613;48.116;11.656;2022-07-09T10:30:50;26.60;51.30
41924;DHT22;27613;48.116;11.656;2022-07-09T10:33:32;26.30;51.50
41924;DHT22;27613;48.116;11.656;2022-07-09T10:36:09;26.00;51.00
41924;DHT22;27613;48.116;11.656;2022-07-09T10:38:37;25.70;51.80
41924;DHT22;27613;48.116;11.656;2022-07-09T10:41:04;25.70;51.90
41924;DHT22;27613;48.116;11.656;2022-07-09T10:43:48;25.60;53.50
41924;DHT22;27613;48.116;11.656;2022-07-09T10:46:14;25.20;54.20
41924;DHT22;27613;48.116;11.656;2022-07-09T10:48:41;24.40;55.30
41924;DHT22;27613;48.116;11.656;2022-07-09T10:51:06;23.90;56.30
41924;DHT22;27613;48.116;11.656;2022-07-09T10:53:32;23.70;56.50
41924;DHT22;27613;48.116;11.656;2022-07-09T10:55:59;23.60;56.90
41924;DHT22;27613;48.116;11.656;2022-07-09T10:58:25;23.80;57.80
41924;DHT22;27613;48.116;11.656;2022-07-09T11:00:55;24.30;56.90
41924;DHT22;27613;48.116;11.656;2022-07-09T11:03:27;24.40;58.10
41924;DHT22;27613;48.116;11.656;2022-07-09T11:05:53;24.00;57.60
41924;DHT22;27613;48.116;11.656;2022-07-09T11:08:19;23.50;59.00
41924;DHT22;27613;48.116;11.656;2022-07-09T11:10:45;23.80;58.50
41924;DHT22;27613;48.116;11.656;2022-07-09T11:13:11;23.60;57.90
41924;DHT22;27613;48.116;11.656;2022-07-09T11:15:37;24.00;58.70
41924;DHT22;27613;48.116;11.656;2022-07-09T11:18:11;24.40;57.20
41924;DHT22;27613;48.116;11.656;2022-07-09T11:20:42;24.30;56.90
41924;DHT22;27613;48.116;11.656;2022-07-09T11:23:10;24.60;57.00
41924;DHT22;27613;48.116;11.656;2022-07-09T11:25:36;25.00;55.20
41924;DHT22;27613;48.116;11.656;2022-07-09T11:28:02;25.90;56.90
41924;DHT22;27613;48.116;11.656;2022-07-09T11:30:29;25.90;56.00
41924;DHT22;27613;48.116;11.656;2022-07-09T11:32:55;26.70;51.90
41924;DHT22;27613;48.116;11.656;2022-07-09T11:37:53;27.60;51.80
41924;DHT22;27613;48.116;11.656;2022-07-09T11:40:20;27.10;49.30
41924;DHT22;27613;48.116;11.656;2022-07-09T11:42:45;27.40;51.50
41924;DHT22;27613;48.116;11.656;2022-07-09T11:45:11;27.30;51.00
41924;DHT22;27613;48.116;11.656;2022-07-09T11:47:39;27.20;50.60
41924;DHT22;27613;48.116;11.656;2022-07-09T11:50:12;25.70;52.20
41924;DHT22;27613;48.116;11.656;2022-07-09T11:52:49;26.30;52.10
41924;DHT22;27613;48.116;11.656;2022-07-09T11:55:19;28.20;54.90
41924;DHT22;27613;48.116;11.656;2022-07-09T11:57:58;30.20;51.60
41924;DHT22;27613;48.116;11.656;2022-07-09T12:00:26;29.70;51.10
41924;DHT22;27613;48.116;11.656;2022-07-09T12:02:53;28.80;51.00
41924;DHT22;27613;48.116;11.656;2022-07-09T12:07:53;28.10;53.10
41924;DHT22;27613;48.116;11.656;2022-07-09T12:10:29;26.40;50.50
41924;DHT22;27613;48.116;11.656;2022-07-09T12:12:56;26.60;53.80
41924;DHT22;27613;48.116;11.656;2022-07-09T12:15:22;28.50;51.30
41924;DHT22;27613;48.116;11.656;2022-07-09T12:17:58;27.70;51.70
41924;DHT22;27613;48.116;11.656;2022-07-09T12:20:31;28.10;50.30
41924;DHT22;27613;48.116;11.656;2022-07-09T12:22:57;28.00;48.20
41924;DHT22;27613;48.116;11.656;2022-07-09T12:25:23;27.60;53.30
41924;DHT22;27613;48.116;11.656;2022-07-09T12:27:49;27.60;50.00
41924;DHT22;27613;48.116;11.656;2022-07-09T12:30:15;26.30;53.00
41924;DHT22;27613;48.116;11.656;2022-07-09T12:32:41;26.50;54.10
41924;DHT22;27613;48.116;11.656;2022-07-09T12:35:08;27.60;53.50
41924;DHT22;27613;48.116;11.656;2022-07-09T12:37:35;28.20;51.00
41924;DHT22;27613;48.116;11.656;2022-07-09T12:40:01;28.70;51.80
41924;DHT22;27613;48.116;11.656;2022-07-09T12:42:27;28.90;52.40
41924;DHT22;27613;48.116;11.656;2022-07-09T12:44:53;28.00;50.20
41924;DHT22;27613;48.116;11.656;2022-07-09T12:47:18;27.50;50.00
41924;DHT22;27613;48.116;11.656;2022-07-09T12:49:44;27.10;50.30
41924;DHT22;27613;48.116;11.656;2022-07-09T12:52:10;27.30;53.30
41924;DHT22;27613;48.116;11.656;2022-07-09T12:54:36;27.50;52.00
41924;DHT22;27613;48.116;11.656;2022-07-09T12:57:02;26.90;51.50
41924;DHT22;27613;48.116;11.656;2022-07-09T12:59:28;26.70;51.70
41924;DHT22;27613;48.116;11.656;2022-07-09T13:01:54;25.60;52.20
41924;DHT22;27613;48.116;11.656;2022-07-09T13:04:20;26.00;52.60
41924;DHT22;27613;48.116;11.656;2022-07-09T13:06:45;26.70;51.40
41924;DHT22;27613;48.116;11.656;2022-07-09T13:09:11;27.80;50.40
41924;DHT22;27613;48.116;11.656;2022-07-09T13:11:38;29.00;50.80
41924;DHT22;27613;48.116;11.656;2022-07-09T13:14:06;30.20;46.80
41924;DHT22;27613;48.116;11.656;2022-07-09T13:16:34;30.00;46.90
41924;DHT22;27613;48.116;11.656;2022-07-09T13:19:00;29.20;47.20
41924;DHT22;27613;48.116;11.656;2022-07-09T13:21:26;28.10;50.50
41924;DHT22;27613;48.116;11.656;2022-07-09T13:23:52;29.80;49.10
41924;DHT22;27613;48.116;11.656;2022-07-09T13:26:19;30.90;46.00
41924;DHT22;27613;48.116;11.656;2022-07-09T13:28:45;32.70;44.40
41924;DHT22;27613;48.116;11.656;2022-07-09T13:31:10;33.10;42.40
41924;DHT22;27613;48.116;11.656;2022-07-09T13:33:36;31.90;43.40
41924;DHT22;27613;48.116;11.656;2022-07-09T13:36:04;31.20;44.80
41924;DHT22;27613;48.116;11.656;2022-07-09T13:38:30;31.20;46.60
41924;DHT22;27613;48.116;11.656;2022-07-09T13:40:56;30.00;45.50
41924;DHT22;27613;48.116;11.656;2022-07-09T13:43:22;30.00;46.90
41924;DHT22;27613;48.116;11.656;2022-07-09T13:45:58;29.20;50.00
41924;DHT22;27613;48.116;11.656;2022-07-09T13:48:25;28.70;48.80
41924;DHT22;27613;48.116;11.656;2022-07-09T13:50:52;28.10;50.10
41924;DHT22;27613;48.116;11.656;2022-07-09T13:53:18;26.90;52.80
41924;DHT22;27613;48.116;11.656;2022-07-09T13:55:44;26.00;57.10
41924;DHT22;27613;48.116;11.656;2022-07-09T13:58:10;26.30;59.90
41924;DHT22;27613;48.116;11.656;2022-07-09T14:00:36;26.30;52.90
41924;DHT22;27613;48.116;11.656;2022-07-09T14:03:01;26.70;56.70
41924;DHT22;27613;48.116;11.656;2022-07-09T14:05:27;26.90;53.40
41924;DHT22;27613;48.116;11.656;2022-07-09T14:07:53;27.20;53.20
41924;DHT22;27613;48.116;11.656;2022-07-09T14:10:19;26.50;52.80
41924;DHT22;27613;48.116;11.656;2022-07-09T14:12:44;26.40;53.20
41924;DHT22;27613;48.116;11.656;2022-07-09T14:15:12;25.80;54.80
41924;DHT22;27613;48.116;11.656;2022-07-09T14:17:37;25.60;53.30
41924;DHT22;27613;48.116;11.656;2022-07-09T14:20:43;25.40;56.90
41924;DHT22;27613;48.116;11.656;2022-07-09T14:39:57;25.60;58.10
41924;DHT22;27613;48.116;11.656;2022-07-09T14:42:34;26.00;56.10
41924;DHT22;27613;48.116;11.656;2022-07-09T14:45:03;26.20;56.00
41924;DHT22;27613;48.116;11.656;2022-07-09T14:47:29;26.10;55.60
41924;DHT22;27613;48.116;11.656;2022-07-09T14:49:54;26.40;53.50
41924;DHT22;27613;48.116;11.656;2022-07-09T14:52:20;26.70;57.10
41924;DHT22;27613;48.116;11.656;2022-07-09T14:54:46;26.70;54.60
41924;DHT22;27613;48.116;11.656;2022-07-09T14:57:11;26.00;59.00
41924;DHT22;27613;48.116;11.656;2022-07-09T14:59:37;25.60;58.70
41924;DHT22;27613;48.116;11.656;2022-07-09T15:02:04;25.60;59.10
41924;DHT22;27613;48.116;11.656;2022-07-09T15:04:29;25.30;55.50
41924;DHT22;27613;48.116;11.656;2022-07-09T15:06:55;25.00;56.30
41924;DHT22;27613;48.116;11.656;2022-07-09T15:09:21;24.80;57.10
41924;DHT22;27613;48.116;11.656;2022-07-09T15:11:46;24.80;57.40
41924;DHT22;27613;48.116;11.656;2022-07-09T15:14:12;24.80;58.40
41924;DHT22;27613;48.116;11.656;2022-07-09T15:16:38;24.50;57.20
41924;DHT22;27613;48.116;11.656;2022-07-09T15:19:04;24.20;58.00
41924;DHT22;27613;48.116;11.656;2022-07-09T15:21:30;24.00;59.40
41924;DHT22;27613;48.116;11.656;2022-07-09T15:23:57;24.00;59.90
41924;DHT22;27613;48.116;11.656;2022-07-09T15:26:22;24.40;56.70
41924;DHT22;27613;48.116;11.656;2022-07-09T15:28:48;24.40;57.50
41924;DHT22;27613;48.116;11.656;2022-07-09T15:31:16;24.80;56.20
41924;DHT22;27613;48.116;11.656;2022-07-09T15:33:42;25.10;57.00
41924;DHT22;27613;48.116;11.656;2022-07-09T15:36:08;25.20;56.80
41924;DHT22;27613;48.116;11.656;2022-07-09T15:38:34;25.10;57.00